createdAt,value
2018-05-02T00:01:01.915Z,43.70
2018-05-02T00:03:29.529Z,43.60
2018-05-02T00:05:57.155Z,43.50
2018-05-02T00:08:24.824Z,43.50
2018-05-02T00:10:52.425Z,43.50
2018-05-02T00:13:20.774Z,44.10
2018-05-02T00:15:48.415Z,44.10
2018-05-02T00:18:15.994Z,44.20
2018-05-02T00:20:43.632Z,44.10
2018-05-02T00:23:11.856Z,43.50
2018-05-02T00:25:40.241Z,43.40
2018-05-02T00:28:08.582Z,43.60
2018-05-02T00:30:36.214Z,43.60
2018-05-02T00:33:04.498Z,43.90
2018-05-02T00:35:32.103Z,43.30
2018-05-02T00:37:59.744Z,44.30
2018-05-02T00:40:28.083Z,44.80
2018-05-02T00:42:55.734Z,44.90
2018-05-02T00:45:23.329Z,44.70
2018-05-02T00:47:50.903Z,44.80
2018-05-02T00:50:18.506Z,45.90
2018-05-02T00:52:46.493Z,47.70
2018-05-02T00:55:14.114Z,49.10
2018-05-02T00:57:42.502Z,53.20
2018-05-02T01:00:10.904Z,55.40
2018-05-02T01:02:39.162Z,55.40
2018-05-02T01:05:07.656Z,57.40
2018-05-02T01:07:35.320Z,57.30
2018-05-02T01:10:02.976Z,57.50
2018-05-02T01:12:30.613Z,57.80
2018-05-02T01:14:59.041Z,59.10
2018-05-02T01:17:26.705Z,59.00
2018-05-02T01:19:54.319Z,59.50
2018-05-02T01:22:22.669Z,60.40
2018-05-02T01:24:50.292Z,60.30
2018-05-02T01:27:17.931Z,60.40
2018-05-02T01:29:45.528Z,61.00
2018-05-02T01:32:13.195Z,61.60
2018-05-02T01:34:40.804Z,62.20
2018-05-02T01:37:08.432Z,62.60
2018-05-02T01:39:36.073Z,62.70
2018-05-02T01:42:03.733Z,62.80
2018-05-02T01:44:31.464Z,62.70
2018-05-02T01:47:11.016Z,63.10
2018-05-02T01:49:38.643Z,63.30
2018-05-02T01:52:07.039Z,64.20
2018-05-02T01:54:34.722Z,64.20
2018-05-02T01:57:02.365Z,64.60
2018-05-02T01:59:30.107Z,65.20
2018-05-02T02:01:57.721Z,65.30
2018-05-02T02:04:25.381Z,65.70
2018-05-02T02:06:53.215Z,65.60
2018-05-02T02:09:20.811Z,66.10
2018-05-02T02:11:48.384Z,66.30
2018-05-02T02:14:16.021Z,66.40
2018-05-02T02:16:43.690Z,66.50
2018-05-02T02:19:11.280Z,66.60
2018-05-02T02:21:39.662Z,66.90
2018-05-02T02:24:08.082Z,66.60
2018-05-02T02:26:35.733Z,66.60
2018-05-02T02:29:03.309Z,66.20
2018-05-02T02:31:30.922Z,66.20
2018-05-02T02:34:00.211Z,66.10
2018-05-02T02:36:28.547Z,66.60
2018-05-02T02:38:56.181Z,65.80
2018-05-02T02:41:24.412Z,65.70
2018-05-02T02:43:52.065Z,65.70
2018-05-02T02:46:19.692Z,65.70
2018-05-02T02:48:48.208Z,65.40
2018-05-02T02:51:15.813Z,64.80
2018-05-02T02:53:43.480Z,64.00
2018-05-02T02:56:11.171Z,63.10
2018-05-02T02:58:38.785Z,62.40
2018-05-02T03:01:06.441Z,60.80
2018-05-02T03:03:34.077Z,59.10
2018-05-02T03:06:01.652Z,58.60
2018-05-02T03:08:30.017Z,58.50
2018-05-02T03:10:58.376Z,58.50
2018-05-02T03:13:25.977Z,58.50
2018-05-02T03:15:54.338Z,58.20
2018-05-02T03:18:22.728Z,58.30
2018-05-02T03:20:51.124Z,59.00
2018-05-02T03:23:18.744Z,59.00
2018-05-02T03:25:46.372Z,59.00
2018-05-02T03:28:13.956Z,58.90
2018-05-02T03:30:41.556Z,59.00
2018-05-02T03:33:09.131Z,59.50
2018-05-02T03:35:36.768Z,59.50
2018-05-02T03:38:05.123Z,59.90
2018-05-02T03:40:34.235Z,59.70
2018-05-02T03:43:02.643Z,60.00
2018-05-02T03:45:30.256Z,60.00
2018-05-02T03:47:57.905Z,60.20
2018-05-02T03:50:27.697Z,61.20
2018-05-02T03:52:55.609Z,61.20
2018-05-02T03:55:23.240Z,61.30
2018-05-02T03:57:50.875Z,62.40
2018-05-02T04:00:30.364Z,61.80
2018-05-02T04:03:10.726Z,62.20
2018-05-02T04:05:51.083Z,61.60
2018-05-02T04:08:19.493Z,61.10
2018-05-02T04:10:47.169Z,61.10
2018-05-02T04:13:14.804Z,60.90
2018-05-02T04:15:42.385Z,60.80
2018-05-02T04:18:10.010Z,61.10
2018-05-02T04:20:38.409Z,61.00
2018-05-02T04:23:06.031Z,61.00
2018-05-02T04:25:33.623Z,60.70
2018-05-02T04:28:01.205Z,60.00
2018-05-02T04:30:28.846Z,59.60
2018-05-02T04:32:57.271Z,58.80
2018-05-02T04:35:24.930Z,58.20
2018-05-02T04:37:52.529Z,58.30
2018-05-02T04:40:20.933Z,58.80
2018-05-02T04:42:48.575Z,58.80
2018-05-02T04:45:16.357Z,59.70
2018-05-02T04:47:43.965Z,58.70
2018-05-02T04:50:11.612Z,58.50
2018-05-02T04:52:39.313Z,58.70
2018-05-02T04:55:06.891Z,58.90
2018-05-02T04:57:34.544Z,58.30
2018-05-02T05:00:02.126Z,58.20
2018-05-02T05:02:29.746Z,58.50
2018-05-02T05:04:58.113Z,57.60
2018-05-02T05:07:27.342Z,57.00
2018-05-02T05:09:54.954Z,57.00
2018-05-02T05:12:22.552Z,56.10
2018-05-02T05:14:50.205Z,54.70
2018-05-02T05:17:18.605Z,54.30
2018-05-02T05:19:46.268Z,54.30
2018-05-02T05:22:13.878Z,53.70
2018-05-02T05:24:41.520Z,52.30
2018-05-02T05:27:09.427Z,51.90
2018-05-02T05:29:37.825Z,51.30
2018-05-02T05:32:05.423Z,51.30
2018-05-02T05:34:32.998Z,51.10
2018-05-02T05:37:00.645Z,50.60
2018-05-02T05:39:29.133Z,50.30
2018-05-02T05:41:56.751Z,51.30
2018-05-02T05:44:24.700Z,49.50
2018-05-02T05:46:52.326Z,49.00
2018-05-02T05:49:21.992Z,47.90
2018-05-02T05:51:49.649Z,47.10
2018-05-02T05:54:17.399Z,46.40
2018-05-02T05:56:45.846Z,46.40
2018-05-02T05:59:13.496Z,46.40
2018-05-02T06:01:41.158Z,45.90
2018-05-02T06:04:09.436Z,45.50
2018-05-02T06:06:37.010Z,45.70
2018-05-02T06:09:06.179Z,45.30
2018-05-02T06:11:33.795Z,44.10
2018-05-02T06:14:01.436Z,44.40
2018-05-02T06:16:29.896Z,44.00
2018-05-02T06:18:58.154Z,43.90
2018-05-02T06:21:25.894Z,43.70
2018-05-02T06:23:53.549Z,43.80
2018-05-02T06:26:21.470Z,43.10
2018-05-02T06:28:49.894Z,42.10
2018-05-02T06:31:17.519Z,42.10
2018-05-02T06:33:45.913Z,40.30
2018-05-02T06:36:13.550Z,40.70
2018-05-02T06:38:41.934Z,40.60
2018-05-02T06:41:10.291Z,40.10
2018-05-02T06:43:37.961Z,40.00
2018-05-02T06:46:05.579Z,39.80
2018-05-02T06:48:33.243Z,40.00
2018-05-02T06:51:00.837Z,39.70
2018-05-02T06:53:28.419Z,40.10
2018-05-02T06:55:56.978Z,39.70
2018-05-02T06:58:24.573Z,39.70
2018-05-02T07:00:52.265Z,40.00
2018-05-02T07:03:19.878Z,39.70
2018-05-02T07:05:48.289Z,39.10
2018-05-02T07:08:15.872Z,39.10
2018-05-02T07:10:43.487Z,39.30
2018-05-02T07:13:11.860Z,39.50
2018-05-02T07:15:40.219Z,39.60
2018-05-02T07:18:09.376Z,39.00
2018-05-02T07:20:36.997Z,39.00
2018-05-02T07:23:04.683Z,38.90
2018-05-02T07:25:32.287Z,39.00
2018-05-02T07:27:59.917Z,38.50
2018-05-02T07:30:27.755Z,38.30
2018-05-02T07:32:55.467Z,38.20
2018-05-02T07:35:23.035Z,37.80
2018-05-02T07:37:50.713Z,36.90
2018-05-02T07:40:19.821Z,37.00
2018-05-02T07:42:48.219Z,35.70
2018-05-02T07:45:15.842Z,35.70
2018-05-02T07:47:43.480Z,36.60
2018-05-02T07:50:11.854Z,36.70
2018-05-02T07:52:44.298Z,36.70
2018-05-02T07:55:12.006Z,36.50
2018-05-02T07:57:39.637Z,35.80
2018-05-02T08:00:07.288Z,35.00
2018-05-02T08:02:34.889Z,34.50
2018-05-02T08:05:05.152Z,34.20
2018-05-02T08:07:35.902Z,33.90
2018-05-02T08:10:03.679Z,33.70
2018-05-02T08:12:34.502Z,33.40
2018-05-02T08:15:04.182Z,33.10
2018-05-02T08:17:33.242Z,33.10
2018-05-02T08:20:00.853Z,33.10
2018-05-02T08:22:28.475Z,32.90
2018-05-02T08:24:58.095Z,32.60
2018-05-02T08:27:26.486Z,32.30
2018-05-02T08:29:54.076Z,32.10
2018-05-02T08:32:21.697Z,31.80
2018-05-02T08:34:50.295Z,32.10
2018-05-02T08:37:17.882Z,32.10
2018-05-02T08:39:46.372Z,31.60
2018-05-02T08:42:13.984Z,31.40
2018-05-02T08:44:42.394Z,32.00
2018-05-02T08:47:10.009Z,32.00
2018-05-02T08:49:38.545Z,32.60
2018-05-02T08:52:06.194Z,32.70
2018-05-02T08:54:33.860Z,32.50
2018-05-02T08:57:01.471Z,32.20
2018-05-02T08:59:29.895Z,31.80
2018-05-02T09:01:57.584Z,31.80
2018-05-02T09:04:26.039Z,32.00
2018-05-02T09:06:53.677Z,31.90
2018-05-02T09:09:21.337Z,32.10
2018-05-02T09:11:48.957Z,31.90
2018-05-02T09:14:16.581Z,32.00
2018-05-02T09:16:44.222Z,31.70
2018-05-02T09:19:11.866Z,32.00
2018-05-02T09:21:39.475Z,31.80
2018-05-02T09:24:07.121Z,32.10
2018-05-02T09:26:35.090Z,31.60
2018-05-02T09:29:02.753Z,31.50
2018-05-02T09:31:30.385Z,31.50
2018-05-02T09:33:58.028Z,30.90
2018-05-02T09:36:26.476Z,32.00
2018-05-02T09:38:54.854Z,32.00
2018-05-02T09:41:22.480Z,32.60
2018-05-02T09:43:50.131Z,32.80
2018-05-02T09:46:17.748Z,32.80
2018-05-02T09:48:46.275Z,33.10
2018-05-02T09:51:13.956Z,33.10
2018-05-02T09:53:41.729Z,33.20
2018-05-02T09:56:09.430Z,33.60
2018-05-02T09:58:37.882Z,33.90
2018-05-02T10:01:05.629Z,33.90
2018-05-02T10:03:33.286Z,34.00
2018-05-02T10:06:00.892Z,34.00
2018-05-02T10:08:29.238Z,33.60
2018-05-02T10:10:56.881Z,33.50
2018-05-02T10:13:24.475Z,33.40
2018-05-02T10:15:52.095Z,33.50
2018-05-02T10:18:20.748Z,34.10
2018-05-02T10:20:48.368Z,34.60
2018-05-02T10:23:16.998Z,34.70
2018-05-02T10:25:44.807Z,34.50
2018-05-02T10:28:12.577Z,34.60
2018-05-02T10:30:40.455Z,34.60
2018-05-02T10:33:08.077Z,34.50
2018-05-02T10:35:35.686Z,34.50
2018-05-02T10:38:04.048Z,34.40
2018-05-02T10:40:31.674Z,34.40
2018-05-02T10:42:59.314Z,34.00
2018-05-02T10:45:27.561Z,34.60
2018-05-02T10:47:55.976Z,34.30
2018-05-02T10:52:56.739Z,34.30
2018-05-02T10:55:24.406Z,34.40
2018-05-02T10:57:52.062Z,34.20
2018-05-02T11:00:20.042Z,34.10
2018-05-02T11:02:47.715Z,33.90
2018-05-02T11:05:15.397Z,33.90
2018-05-02T11:07:43.846Z,33.90
2018-05-02T11:10:11.458Z,33.90
2018-05-02T11:12:39.537Z,34.30
2018-05-02T11:15:07.162Z,34.50
2018-05-02T11:17:34.822Z,34.80
2018-05-02T11:20:03.300Z,34.60
2018-05-02T11:22:30.951Z,34.80
2018-05-02T11:24:59.234Z,34.30
2018-05-02T11:27:26.890Z,34.20
2018-05-02T11:29:54.624Z,34.30
2018-05-02T11:32:22.281Z,34.30
2018-05-02T11:34:49.932Z,34.30
2018-05-02T11:37:17.690Z,34.40
2018-05-02T11:39:45.321Z,34.70
2018-05-02T11:42:13.823Z,35.00
2018-05-02T11:44:41.446Z,35.00
2018-05-02T11:47:10.633Z,35.40
2018-05-02T11:49:39.909Z,36.50
2018-05-02T11:52:07.553Z,36.50
2018-05-02T11:54:35.330Z,36.80
2018-05-02T11:57:02.953Z,37.00
2018-05-02T11:59:31.013Z,37.00
2018-05-02T12:01:59.490Z,37.50
2018-05-02T12:04:27.988Z,37.70
2018-05-02T12:06:55.613Z,37.60
2018-05-02T12:09:23.265Z,37.80
2018-05-02T12:11:51.626Z,38.10
2018-05-02T12:14:19.305Z,38.20
2018-05-02T12:16:48.500Z,39.10
2018-05-02T12:19:16.133Z,39.00
2018-05-02T12:21:43.808Z,39.80
2018-05-02T12:24:11.667Z,39.90
2018-05-02T12:26:39.946Z,40.40
2018-05-02T12:29:07.580Z,40.40
2018-05-02T12:31:35.269Z,40.70
2018-05-02T12:34:02.906Z,41.20
2018-05-02T12:36:30.898Z,41.80
2018-05-02T12:38:59.412Z,42.00
2018-05-02T12:41:27.806Z,42.00
2018-05-02T12:43:56.253Z,41.90
2018-05-02T12:46:23.910Z,41.80
2018-05-02T12:48:51.541Z,42.10
2018-05-02T12:51:19.245Z,42.40
2018-05-02T12:53:47.673Z,42.30
2018-05-02T12:56:15.439Z,42.30
2018-05-02T12:58:43.372Z,42.30
2018-05-02T13:01:12.573Z,42.20
2018-05-02T13:03:41.022Z,42.20
2018-05-02T13:06:08.857Z,42.20
2018-05-02T13:08:36.537Z,41.90
2018-05-02T13:11:04.727Z,41.40
2018-05-02T13:13:32.964Z,41.30
2018-05-02T13:16:01.481Z,41.10
2018-05-02T13:18:29.132Z,40.80
2018-05-02T13:20:56.894Z,40.20
2018-05-02T13:23:24.687Z,39.40
2018-05-02T13:25:53.177Z,37.80
2018-05-02T13:28:21.675Z,37.30
2018-05-02T13:30:49.381Z,37.30
2018-05-02T13:33:17.270Z,37.00
2018-05-02T13:35:44.940Z,36.60
2018-05-02T13:38:13.528Z,35.40
2018-05-02T13:40:42.096Z,34.50
2018-05-02T13:43:09.834Z,34.40
2018-05-02T13:45:37.598Z,34.30
2018-05-02T13:48:05.233Z,33.70
2018-05-02T13:50:32.902Z,33.00
2018-05-02T13:53:00.561Z,32.90
2018-05-02T13:55:28.383Z,32.20
2018-05-02T13:57:56.218Z,32.40
2018-05-02T14:00:23.865Z,33.70
2018-05-02T14:02:51.482Z,33.60
2018-05-02T14:05:19.168Z,33.70
2018-05-02T14:07:46.975Z,34.20
2018-05-02T14:10:15.394Z,33.60
2018-05-02T14:12:43.113Z,33.60
2018-05-02T14:15:10.849Z,32.10
2018-05-02T14:17:38.576Z,31.20
2018-05-02T14:20:07.076Z,29.90
2018-05-02T14:22:34.654Z,29.90
2018-05-02T14:25:02.448Z,29.50
2018-05-02T14:27:30.884Z,29.40
2018-05-02T14:29:58.521Z,29.70
2018-05-02T14:32:26.109Z,30.40
2018-05-02T14:34:53.761Z,31.00
2018-05-02T14:37:21.415Z,31.40
2018-05-02T14:39:49.097Z,30.80
2018-05-02T14:42:16.812Z,30.00
2018-05-02T14:44:45.234Z,29.70
2018-05-02T14:47:13.003Z,29.70
2018-05-02T14:49:40.610Z,29.30
2018-05-02T14:52:09.011Z,29.30
2018-05-02T14:54:36.665Z,29.20
2018-05-02T14:57:04.324Z,29.60
2018-05-02T14:59:32.776Z,30.60
2018-05-02T15:02:00.440Z,30.50
2018-05-02T15:04:28.033Z,31.70
2018-05-02T15:06:55.680Z,31.70
2018-05-02T15:09:24.061Z,32.30
2018-05-02T15:11:52.550Z,33.00
2018-05-02T15:14:20.205Z,32.30
2018-05-02T15:16:47.871Z,32.30
2018-05-02T15:19:16.309Z,32.60
2018-05-02T15:21:43.972Z,32.60
2018-05-02T15:24:11.628Z,33.10
2018-05-02T15:26:39.297Z,33.50
2018-05-02T15:29:06.925Z,33.90
2018-05-02T15:31:35.277Z,34.30
2018-05-02T15:34:02.883Z,34.80
2018-05-02T15:36:30.507Z,35.20
2018-05-02T15:38:58.119Z,35.60
2018-05-02T15:41:27.807Z,35.50
2018-05-02T15:43:55.476Z,35.50
2018-05-02T15:46:23.324Z,35.50
2018-05-02T15:48:51.092Z,35.40
2018-05-02T15:51:18.705Z,35.40
2018-05-02T15:53:46.353Z,35.10
2018-05-02T15:56:13.952Z,35.40
2018-05-02T15:58:42.686Z,35.20
2018-05-02T16:01:10.325Z,35.30
2018-05-02T16:03:37.951Z,35.30
2018-05-02T16:06:05.590Z,35.20
2018-05-02T16:08:33.962Z,35.80
2018-05-02T16:11:02.349Z,36.10
2018-05-02T16:13:30.786Z,36.50
2018-05-02T16:15:58.437Z,36.50
2018-05-02T16:18:26.044Z,36.60
2018-05-02T16:20:54.416Z,37.20
2018-05-02T16:23:23.521Z,37.50
2018-05-02T16:25:51.923Z,37.70
2018-05-02T16:28:19.608Z,37.60
2018-05-02T16:30:47.244Z,38.00
2018-05-02T16:33:14.877Z,38.20
2018-05-02T16:35:43.257Z,38.70
2018-05-02T16:38:11.690Z,39.10
2018-05-02T16:40:39.327Z,39.10
2018-05-02T16:43:06.975Z,39.20
2018-05-02T16:45:34.626Z,39.20
2018-05-02T16:48:02.221Z,39.70
2018-05-02T16:50:29.803Z,39.80
2018-05-02T16:52:57.503Z,40.20
2018-05-02T16:55:25.100Z,40.60
2018-05-02T16:57:52.736Z,40.90
2018-05-02T17:00:20.888Z,41.30
2018-05-02T17:02:49.261Z,41.60
2018-05-02T17:05:17.675Z,41.70
2018-05-02T17:07:45.287Z,41.70
2018-05-02T17:10:12.868Z,42.00
2018-05-02T17:12:41.284Z,42.10
2018-05-02T17:15:08.863Z,42.10
2018-05-02T17:17:36.475Z,42.10
2018-05-02T17:20:04.056Z,42.00
2018-05-02T17:22:31.641Z,42.20
2018-05-02T17:24:59.302Z,42.30
2018-05-02T17:27:26.969Z,42.40
2018-05-02T17:29:54.592Z,42.50
2018-05-02T17:32:22.175Z,42.60
2018-05-02T17:34:49.800Z,42.80
2018-05-02T17:37:17.465Z,43.00
2018-05-02T17:39:45.062Z,43.10
2018-05-02T17:42:12.667Z,43.40
2018-05-02T17:44:41.121Z,43.80
2018-05-02T17:47:08.740Z,43.90
2018-05-02T17:49:36.412Z,44.00
2018-05-02T17:52:04.019Z,44.20
2018-05-02T17:54:32.385Z,44.40
2018-05-02T17:57:00.264Z,44.40
2018-05-02T17:59:28.629Z,44.90
2018-05-02T18:01:56.993Z,44.90
2018-05-02T18:04:24.625Z,45.20
2018-05-02T18:06:52.249Z,45.50
2018-05-02T18:09:19.909Z,45.70
2018-05-02T18:11:47.593Z,46.20
2018-05-02T18:14:15.206Z,46.10
2018-05-02T18:16:42.858Z,46.40
2018-05-02T18:19:10.464Z,46.40
2018-05-02T18:21:38.163Z,46.60
2018-05-02T18:24:05.809Z,46.90
2018-05-02T18:26:33.687Z,47.00
2018-05-02T18:29:01.294Z,47.00
2018-05-02T18:31:29.683Z,47.20
2018-05-02T18:33:57.333Z,47.30
2018-05-02T18:36:25.716Z,47.30
2018-05-02T18:38:53.519Z,47.30
2018-05-02T18:41:21.932Z,47.60
2018-05-02T18:43:49.674Z,47.60
2018-05-02T18:46:17.268Z,47.60
2018-05-02T18:48:45.652Z,47.90
2018-05-02T18:51:14.040Z,48.10
2018-05-02T18:53:42.042Z,48.00
2018-05-02T18:56:09.710Z,48.10
2018-05-02T18:58:37.396Z,48.10
2018-05-02T19:01:05.011Z,48.20
2018-05-02T19:03:37.941Z,48.30
2018-05-02T19:06:06.099Z,48.30
2018-05-02T19:08:36.296Z,48.50
2018-05-02T19:11:04.374Z,48.70
2018-05-02T19:13:32.752Z,49.10
2018-05-02T19:16:01.725Z,49.80
2018-05-02T19:18:36.802Z,49.80
2018-05-02T19:21:05.841Z,50.00
2018-05-02T19:23:34.226Z,50.50
2018-05-02T19:26:07.572Z,50.90
2018-05-02T19:28:36.558Z,51.20
2018-05-02T19:31:10.695Z,51.40
2018-05-02T19:33:45.171Z,51.50
2018-05-02T19:36:12.798Z,51.60
2018-05-02T19:38:40.494Z,51.70
2018-05-02T19:41:13.823Z,51.80
2018-05-02T19:43:47.771Z,52.00
2018-05-02T19:46:17.131Z,51.80
2018-05-02T19:48:44.769Z,51.70
2018-05-02T19:51:18.341Z,51.20
2018-05-02T19:53:45.982Z,51.60
2018-05-02T19:56:14.356Z,51.50
2018-05-02T19:58:43.422Z,51.60
2018-05-02T20:01:16.752Z,51.60
2018-05-02T20:03:44.433Z,51.70
2018-05-02T20:06:12.048Z,51.80
2018-05-02T20:08:46.237Z,52.50
2018-05-02T20:11:19.634Z,51.90
2018-05-02T20:13:53.200Z,51.70
2018-05-02T20:16:21.191Z,51.60
2018-05-02T20:18:48.943Z,51.70
2018-05-02T20:21:16.711Z,51.80
2018-05-02T20:23:45.191Z,51.80
2018-05-02T20:26:15.407Z,51.90
2018-05-02T20:28:43.210Z,51.90
2018-05-02T20:31:10.914Z,52.10
2018-05-02T20:33:38.715Z,52.20
2018-05-02T20:36:06.451Z,52.40
2018-05-02T20:38:34.923Z,52.40
2018-05-02T20:41:02.805Z,52.60
2018-05-02T20:43:30.674Z,52.90
2018-05-02T20:45:58.439Z,53.10
2018-05-02T20:48:26.195Z,53.10
2018-05-02T20:50:55.215Z,53.40
2018-05-02T20:53:22.951Z,53.40
2018-05-02T20:55:50.572Z,53.60
2018-05-02T20:58:18.998Z,54.00
2018-05-02T21:00:46.603Z,53.90
2018-05-02T21:03:14.979Z,54.20
2018-05-02T21:05:43.373Z,54.30
2018-05-02T21:08:11.028Z,54.30
2018-05-02T21:10:39.380Z,54.60
2018-05-02T21:13:07.801Z,54.60
2018-05-02T21:15:35.489Z,54.60
2018-05-02T21:18:03.084Z,54.80
2018-05-02T21:20:30.930Z,54.90
2018-05-02T21:22:58.577Z,55.10
2018-05-02T21:25:26.569Z,55.10
2018-05-02T21:28:01.268Z,55.20
2018-05-02T21:30:45.145Z,55.30
2018-05-02T21:33:12.951Z,55.30
2018-05-02T21:35:40.658Z,55.30
2018-05-02T21:38:08.639Z,55.60
2018-05-02T21:40:37.099Z,55.60
2018-05-02T21:43:05.961Z,55.50
2018-05-02T21:45:34.399Z,55.60
2018-05-02T21:48:03.519Z,55.50
2018-05-02T21:50:31.956Z,55.20
2018-05-02T21:53:01.092Z,55.20
2018-05-02T21:55:28.711Z,55.20
2018-05-02T21:57:56.367Z,55.30
2018-05-02T22:00:23.981Z,55.40
2018-05-02T22:02:51.629Z,55.50
2018-05-02T22:05:19.337Z,55.50
2018-05-02T22:07:47.086Z,55.60
2018-05-02T22:10:15.561Z,55.70
2018-05-02T22:12:43.252Z,55.90
2018-05-02T22:15:10.917Z,56.00
2018-05-02T22:17:38.659Z,56.10
2018-05-02T22:20:06.344Z,56.20
2018-05-02T22:22:35.494Z,56.60
2018-05-02T22:25:03.102Z,56.60
2018-05-02T22:27:30.780Z,56.50
2018-05-02T22:29:59.183Z,56.60
2018-05-02T22:32:27.442Z,56.60
2018-05-02T22:34:55.791Z,56.70
2018-05-02T22:37:23.642Z,56.60
2018-05-02T22:39:51.263Z,56.60
2018-05-02T22:42:18.900Z,56.70
2018-05-02T22:44:47.284Z,56.90
2018-05-02T22:47:15.664Z,57.00
2018-05-02T22:49:44.079Z,57.00
2018-05-02T22:52:11.738Z,57.00
2018-05-02T22:54:39.345Z,57.00
2018-05-02T22:57:07.788Z,57.10
2018-05-02T22:59:35.411Z,57.00
2018-05-02T23:02:03.025Z,56.90
2018-05-02T23:04:30.692Z,57.10
2018-05-02T23:06:59.803Z,57.20
2018-05-02T23:09:27.389Z,57.20
2018-05-02T23:11:55.061Z,57.30
2018-05-02T23:14:22.674Z,57.40
2018-05-02T23:16:51.136Z,57.60
2018-05-02T23:19:18.790Z,57.70
2018-05-02T23:21:46.457Z,57.80
2018-05-02T23:24:14.118Z,58.00
2018-05-02T23:26:41.741Z,58.10
2018-05-02T23:29:10.543Z,58.30
2018-05-02T23:31:39.073Z,58.60
2018-05-02T23:34:06.724Z,59.10
2018-05-02T23:36:34.560Z,59.30
2018-05-02T23:39:02.263Z,59.20
2018-05-02T23:41:30.638Z,59.80
2018-05-02T23:43:58.273Z,59.80
2018-05-02T23:46:26.601Z,60.30
2018-05-02T23:48:54.238Z,60.90
2018-05-02T23:51:21.907Z,61.30
2018-05-02T23:53:50.272Z,61.90
2018-05-02T23:56:19.354Z,61.90
2018-05-02T23:58:46.969Z,62.00
